Hauptseite
METAR-TAF:

METAR-TAF

Flughäfen :

Flugplatz Oberpfaffenhofen

Oberpfaffenhofen, Deutschland

Breite: 48-05N, Länge: 011-17E, Höhe: 600 m

Beobachtung

Neuester Wetterbericht von vor 12 Stunden und 28 Minuten, um 15:50 UTC
Wind 3 kt aus Nord/Nordost
Temperatur -3°C
Luftfeuchtigkeit 93%
Luftdruck 1013 hPa
Sichtweite: 8000 m
Aufgelockert bewölkt in der Höhe von 3400 ft
Durchbrochene Bewölkung in der Höhe von 5700 ft
(schwach) gefrierend, Regen

METAR: EDMO 201550Z 03003KT 8000 -FZRA SCT034 BKN057 M03/M04 Q1013

Zeit: 05:18 (04:18 UTC)


TAF: fehlend

Wetterbeobachtungen und Prognosen von mehr als 4000 Flughäfen (METAR und TAF Bericht).

Die verfügbaren Stationen werden durch gelbe und rote Markierungen auf der Karte dargestellt.

Führen Sie die Maus auf sie, um den Namen der Station zu sehen.

Darauf klicken, um die Beobachtung von Wetterbeobachtungen und Prognosen zu sehen.

Um die Karte zu ändern : klicken Sie auf den grünen Tasten mit einem schwarzen Kreuz Zum Vergrößern, auf den grünen Button mit einem Gedankenstrich zu verkleinern, oder auf die grünen Pfeile für benachbarte Karten.


METAR-TAF: